<?xml version="1.0" encoding="UTF-8" standalone="no" ?>
<gpx xmlns="http://www.topografix.com/GPX/1/1" xmlns:xsi="http://www.w3.org/2001/XMLSchema-instance" xsi:schemaLocation="http://www.topografix.com/GPX/1/1 http://www.topografix.com/GPX/1/1/gpx.xsd" version="1.1" creator="VisuGPX - https://www.visugpx.com">
  <metadata>
    <name>11302831-Forêt du Cranou</name>
  </metadata>
  <trk>
    <name><![CDATA[11302831-Forêt du Cranou]]></name>
    <trkseg>
      <trkpt lat="48.3126" lon="-4.12103">
        <ele>115</ele>
        <time>2020-05-17T07:22:20Z</time>
      </trkpt>
      <trkpt lat="48.31273" lon="-4.12065">
        <ele>118</ele>
        <time>2020-05-17T07:22:58Z</time>
      </trkpt>
      <trkpt lat="48.31266" lon="-4.12056">
        <ele>117</ele>
        <time>2020-05-17T07:23:10Z</time>
      </trkpt>
      <trkpt lat="48.31256" lon="-4.1194">
        <ele>116</ele>
        <time>2020-05-17T07:24:54Z</time>
      </trkpt>
      <trkpt lat="48.31235" lon="-4.11633">
        <ele>107</ele>
        <time>2020-05-17T07:29:28Z</time>
      </trkpt>
      <trkpt lat="48.31224" lon="-4.11361">
        <ele>105</ele>
        <time>2020-05-17T07:33:30Z</time>
      </trkpt>
      <trkpt lat="48.31214" lon="-4.11211">
        <ele>106</ele>
        <time>2020-05-17T07:35:44Z</time>
      </trkpt>
      <trkpt lat="48.31208" lon="-4.11083">
        <ele>103</ele>
        <time>2020-05-17T07:37:37Z</time>
      </trkpt>
      <trkpt lat="48.31218" lon="-4.1106">
        <ele>104</ele>
        <time>2020-05-17T07:38:02Z</time>
      </trkpt>
      <trkpt lat="48.31226" lon="-4.11049">
        <ele>104</ele>
        <time>2020-05-17T07:38:16Z</time>
      </trkpt>
      <trkpt lat="48.31229" lon="-4.11035">
        <ele>104</ele>
        <time>2020-05-17T07:38:29Z</time>
      </trkpt>
      <trkpt lat="48.31227" lon="-4.11026">
        <ele>104</ele>
        <time>2020-05-17T07:38:38Z</time>
      </trkpt>
      <trkpt lat="48.31207" lon="-4.10991">
        <ele>101</ele>
        <time>2020-05-17T07:39:19Z</time>
      </trkpt>
      <trkpt lat="48.312" lon="-4.10959">
        <ele>103</ele>
        <time>2020-05-17T07:39:49Z</time>
      </trkpt>
      <trkpt lat="48.31197" lon="-4.10927">
        <ele>105</ele>
        <time>2020-05-17T07:40:17Z</time>
      </trkpt>
      <trkpt lat="48.31191" lon="-4.10803">
        <ele>110</ele>
        <time>2020-05-17T07:42:08Z</time>
      </trkpt>
      <trkpt lat="48.31188" lon="-4.10704">
        <ele>114</ele>
        <time>2020-05-17T07:43:36Z</time>
      </trkpt>
      <trkpt lat="48.3118" lon="-4.10574">
        <ele>117</ele>
        <time>2020-05-17T07:45:31Z</time>
      </trkpt>
      <trkpt lat="48.31173" lon="-4.10516">
        <ele>119</ele>
        <time>2020-05-17T07:46:24Z</time>
      </trkpt>
      <trkpt lat="48.31167" lon="-4.10437">
        <ele>126</ele>
        <time>2020-05-17T07:47:34Z</time>
      </trkpt>
      <trkpt lat="48.31157" lon="-4.10245">
        <ele>142</ele>
        <time>2020-05-17T07:50:25Z</time>
      </trkpt>
      <trkpt lat="48.31153" lon="-4.10051">
        <ele>137</ele>
        <time>2020-05-17T07:53:18Z</time>
      </trkpt>
      <trkpt lat="48.31148" lon="-4.09998">
        <ele>130</ele>
        <time>2020-05-17T07:54:05Z</time>
      </trkpt>
      <trkpt lat="48.31142" lon="-4.09986">
        <ele>128</ele>
        <time>2020-05-17T07:54:18Z</time>
      </trkpt>
      <trkpt lat="48.3111" lon="-4.0994">
        <ele>122</ele>
        <time>2020-05-17T07:55:17Z</time>
      </trkpt>
      <trkpt lat="48.31092" lon="-4.09904">
        <ele>118</ele>
        <time>2020-05-17T07:55:57Z</time>
      </trkpt>
      <trkpt lat="48.31085" lon="-4.09885">
        <ele>117</ele>
        <time>2020-05-17T07:56:17Z</time>
      </trkpt>
      <trkpt lat="48.31084" lon="-4.0987">
        <ele>117</ele>
        <time>2020-05-17T07:56:30Z</time>
      </trkpt>
      <trkpt lat="48.31074" lon="-4.09852">
        <ele>116</ele>
        <time>2020-05-17T07:56:51Z</time>
      </trkpt>
      <trkpt lat="48.31068" lon="-4.0984">
        <ele>116</ele>
        <time>2020-05-17T07:57:04Z</time>
      </trkpt>
      <trkpt lat="48.31058" lon="-4.09811">
        <ele>117</ele>
        <time>2020-05-17T07:57:33Z</time>
      </trkpt>
      <trkpt lat="48.31056" lon="-4.09802">
        <ele>118</ele>
        <time>2020-05-17T07:57:42Z</time>
      </trkpt>
      <trkpt lat="48.31101" lon="-4.09771">
        <ele>118</ele>
        <time>2020-05-17T07:58:48Z</time>
      </trkpt>
      <trkpt lat="48.31116" lon="-4.09758">
        <ele>118</ele>
        <time>2020-05-17T07:59:11Z</time>
      </trkpt>
      <trkpt lat="48.31146" lon="-4.09738">
        <ele>119</ele>
        <time>2020-05-17T07:59:55Z</time>
      </trkpt>
      <trkpt lat="48.31166" lon="-4.09721">
        <ele>120</ele>
        <time>2020-05-17T08:00:25Z</time>
      </trkpt>
      <trkpt lat="48.312" lon="-4.09685">
        <ele>119</ele>
        <time>2020-05-17T08:01:21Z</time>
      </trkpt>
      <trkpt lat="48.31263" lon="-4.09644">
        <ele>113</ele>
        <time>2020-05-17T08:02:52Z</time>
      </trkpt>
      <trkpt lat="48.31275" lon="-4.09638">
        <ele>111</ele>
        <time>2020-05-17T08:03:09Z</time>
      </trkpt>
      <trkpt lat="48.31277" lon="-4.09637">
        <ele>111</ele>
        <time>2020-05-17T08:03:12Z</time>
      </trkpt>
      <trkpt lat="48.31288" lon="-4.09632">
        <ele>109</ele>
        <time>2020-05-17T08:03:27Z</time>
      </trkpt>
      <trkpt lat="48.31295" lon="-4.09629">
        <ele>109</ele>
        <time>2020-05-17T08:03:37Z</time>
      </trkpt>
      <trkpt lat="48.31297" lon="-4.09628">
        <ele>108</ele>
        <time>2020-05-17T08:03:40Z</time>
      </trkpt>
      <trkpt lat="48.31309" lon="-4.09622">
        <ele>107</ele>
        <time>2020-05-17T08:03:57Z</time>
      </trkpt>
      <trkpt lat="48.31298" lon="-4.09589">
        <ele>106</ele>
        <time>2020-05-17T08:04:30Z</time>
      </trkpt>
      <trkpt lat="48.31285" lon="-4.09532">
        <ele>106</ele>
        <time>2020-05-17T08:05:23Z</time>
      </trkpt>
      <trkpt lat="48.31269" lon="-4.09486">
        <ele>106</ele>
        <time>2020-05-17T08:06:09Z</time>
      </trkpt>
      <trkpt lat="48.31266" lon="-4.0948">
        <ele>106</ele>
        <time>2020-05-17T08:06:16Z</time>
      </trkpt>
      <trkpt lat="48.31247" lon="-4.09448">
        <ele>106</ele>
        <time>2020-05-17T08:06:54Z</time>
      </trkpt>
      <trkpt lat="48.31233" lon="-4.09426">
        <ele>108</ele>
        <time>2020-05-17T08:07:21Z</time>
      </trkpt>
      <trkpt lat="48.31176" lon="-4.09385">
        <ele>114</ele>
        <time>2020-05-17T08:08:45Z</time>
      </trkpt>
      <trkpt lat="48.31152" lon="-4.09359">
        <ele>117</ele>
        <time>2020-05-17T08:09:25Z</time>
      </trkpt>
      <trkpt lat="48.31151" lon="-4.09354">
        <ele>117</ele>
        <time>2020-05-17T08:09:29Z</time>
      </trkpt>
      <trkpt lat="48.31146" lon="-4.09337">
        <ele>118</ele>
        <time>2020-05-17T08:09:46Z</time>
      </trkpt>
      <trkpt lat="48.31146" lon="-4.09331">
        <ele>118</ele>
        <time>2020-05-17T08:09:51Z</time>
      </trkpt>
      <trkpt lat="48.31147" lon="-4.09252">
        <ele>121</ele>
        <time>2020-05-17T08:11:01Z</time>
      </trkpt>
      <trkpt lat="48.31162" lon="-4.08556">
        <ele>124</ele>
        <time>2020-05-17T08:21:19Z</time>
      </trkpt>
      <trkpt lat="48.31167" lon="-4.08347">
        <ele>134</ele>
        <time>2020-05-17T08:24:25Z</time>
      </trkpt>
      <trkpt lat="48.3117" lon="-4.08096">
        <ele>145</ele>
        <time>2020-05-17T08:28:08Z</time>
      </trkpt>
      <trkpt lat="48.3119" lon="-4.06809">
        <ele>182</ele>
        <time>2020-05-17T08:47:10Z</time>
      </trkpt>
      <trkpt lat="48.31192" lon="-4.06737">
        <ele>182</ele>
        <time>2020-05-17T08:48:14Z</time>
      </trkpt>
      <trkpt lat="48.31198" lon="-4.06615">
        <ele>182</ele>
        <time>2020-05-17T08:50:03Z</time>
      </trkpt>
      <trkpt lat="48.31229" lon="-4.06586">
        <ele>185</ele>
        <time>2020-05-17T08:50:52Z</time>
      </trkpt>
      <trkpt lat="48.31227" lon="-4.06587">
        <ele>185</ele>
        <time>2020-05-17T08:50:54Z</time>
      </trkpt>
      <trkpt lat="48.31231" lon="-4.06613">
        <ele>186</ele>
        <time>2020-05-17T08:51:18Z</time>
      </trkpt>
      <trkpt lat="48.31227" lon="-4.06587">
        <ele>185</ele>
        <time>2020-05-17T08:51:42Z</time>
      </trkpt>
      <trkpt lat="48.31229" lon="-4.06586">
        <ele>185</ele>
        <time>2020-05-17T08:51:45Z</time>
      </trkpt>
      <trkpt lat="48.31255" lon="-4.06559">
        <ele>189</ele>
        <time>2020-05-17T08:52:27Z</time>
      </trkpt>
      <trkpt lat="48.31302" lon="-4.06511">
        <ele>194</ele>
        <time>2020-05-17T08:53:42Z</time>
      </trkpt>
      <trkpt lat="48.31335" lon="-4.06489">
        <ele>197</ele>
        <time>2020-05-17T08:54:31Z</time>
      </trkpt>
      <trkpt lat="48.31371" lon="-4.06453">
        <ele>198</ele>
        <time>2020-05-17T08:55:28Z</time>
      </trkpt>
      <trkpt lat="48.31389" lon="-4.06421">
        <ele>198</ele>
        <time>2020-05-17T08:56:06Z</time>
      </trkpt>
      <trkpt lat="48.31423" lon="-4.06339">
        <ele>202</ele>
        <time>2020-05-17T08:57:31Z</time>
      </trkpt>
      <trkpt lat="48.31438" lon="-4.06287">
        <ele>205</ele>
        <time>2020-05-17T08:58:22Z</time>
      </trkpt>
      <trkpt lat="48.31446" lon="-4.06235">
        <ele>207</ele>
        <time>2020-05-17T08:59:09Z</time>
      </trkpt>
      <trkpt lat="48.31449" lon="-4.06224">
        <ele>207</ele>
        <time>2020-05-17T08:59:20Z</time>
      </trkpt>
      <trkpt lat="48.31454" lon="-4.06205">
        <ele>207</ele>
        <time>2020-05-17T08:59:38Z</time>
      </trkpt>
      <trkpt lat="48.31461" lon="-4.06175">
        <ele>206</ele>
        <time>2020-05-17T09:00:06Z</time>
      </trkpt>
      <trkpt lat="48.31492" lon="-4.06126">
        <ele>208</ele>
        <time>2020-05-17T09:01:06Z</time>
      </trkpt>
      <trkpt lat="48.31527" lon="-4.06083">
        <ele>211</ele>
        <time>2020-05-17T09:02:06Z</time>
      </trkpt>
      <trkpt lat="48.31549" lon="-4.06075">
        <ele>214</ele>
        <time>2020-05-17T09:02:36Z</time>
      </trkpt>
      <trkpt lat="48.31577" lon="-4.06083">
        <ele>217</ele>
        <time>2020-05-17T09:03:14Z</time>
      </trkpt>
      <trkpt lat="48.31595" lon="-4.06096">
        <ele>220</ele>
        <time>2020-05-17T09:03:41Z</time>
      </trkpt>
      <trkpt lat="48.31613" lon="-4.06117">
        <ele>223</ele>
        <time>2020-05-17T09:04:12Z</time>
      </trkpt>
      <trkpt lat="48.31629" lon="-4.06124">
        <ele>225</ele>
        <time>2020-05-17T09:04:34Z</time>
      </trkpt>
      <trkpt lat="48.31635" lon="-4.06117">
        <ele>225</ele>
        <time>2020-05-17T09:04:44Z</time>
      </trkpt>
      <trkpt lat="48.31638" lon="-4.06107">
        <ele>226</ele>
        <time>2020-05-17T09:04:54Z</time>
      </trkpt>
      <trkpt lat="48.31634" lon="-4.06087">
        <ele>226</ele>
        <time>2020-05-17T09:05:12Z</time>
      </trkpt>
      <trkpt lat="48.31625" lon="-4.06068">
        <ele>226</ele>
        <time>2020-05-17T09:05:33Z</time>
      </trkpt>
      <trkpt lat="48.31617" lon="-4.06033">
        <ele>226</ele>
        <time>2020-05-17T09:06:06Z</time>
      </trkpt>
      <trkpt lat="48.3161" lon="-4.06005">
        <ele>227</ele>
        <time>2020-05-17T09:06:32Z</time>
      </trkpt>
      <trkpt lat="48.31599" lon="-4.0594">
        <ele>230</ele>
        <time>2020-05-17T09:07:32Z</time>
      </trkpt>
      <trkpt lat="48.316" lon="-4.05927">
        <ele>231</ele>
        <time>2020-05-17T09:07:43Z</time>
      </trkpt>
      <trkpt lat="48.31604" lon="-4.05912">
        <ele>233</ele>
        <time>2020-05-17T09:07:58Z</time>
      </trkpt>
      <trkpt lat="48.3161" lon="-4.05908">
        <ele>234</ele>
        <time>2020-05-17T09:08:06Z</time>
      </trkpt>
      <trkpt lat="48.3162" lon="-4.05912">
        <ele>235</ele>
        <time>2020-05-17T09:08:20Z</time>
      </trkpt>
      <trkpt lat="48.31635" lon="-4.05951">
        <ele>234</ele>
        <time>2020-05-17T09:09:00Z</time>
      </trkpt>
      <trkpt lat="48.31645" lon="-4.05966">
        <ele>235</ele>
        <time>2020-05-17T09:09:19Z</time>
      </trkpt>
      <trkpt lat="48.31653" lon="-4.05974">
        <ele>236</ele>
        <time>2020-05-17T09:09:32Z</time>
      </trkpt>
      <trkpt lat="48.31689" lon="-4.05988">
        <ele>240</ele>
        <time>2020-05-17T09:10:22Z</time>
      </trkpt>
      <trkpt lat="48.31713" lon="-4.05995">
        <ele>243</ele>
        <time>2020-05-17T09:10:54Z</time>
      </trkpt>
      <trkpt lat="48.31734" lon="-4.05996">
        <ele>246</ele>
        <time>2020-05-17T09:11:22Z</time>
      </trkpt>
      <trkpt lat="48.31766" lon="-4.05994">
        <ele>250</ele>
        <time>2020-05-17T09:12:05Z</time>
      </trkpt>
      <trkpt lat="48.318" lon="-4.05988">
        <ele>254</ele>
        <time>2020-05-17T09:12:51Z</time>
      </trkpt>
      <trkpt lat="48.31828" lon="-4.05978">
        <ele>257</ele>
        <time>2020-05-17T09:13:29Z</time>
      </trkpt>
      <trkpt lat="48.31852" lon="-4.05968">
        <ele>260</ele>
        <time>2020-05-17T09:14:02Z</time>
      </trkpt>
      <trkpt lat="48.31866" lon="-4.0595">
        <ele>262</ele>
        <time>2020-05-17T09:14:27Z</time>
      </trkpt>
      <trkpt lat="48.31871" lon="-4.0594">
        <ele>263</ele>
        <time>2020-05-17T09:14:38Z</time>
      </trkpt>
      <trkpt lat="48.31875" lon="-4.05932">
        <ele>264</ele>
        <time>2020-05-17T09:14:47Z</time>
      </trkpt>
      <trkpt lat="48.3188" lon="-4.05919">
        <ele>266</ele>
        <time>2020-05-17T09:15:00Z</time>
      </trkpt>
      <trkpt lat="48.31895" lon="-4.05945">
        <ele>265</ele>
        <time>2020-05-17T09:15:31Z</time>
      </trkpt>
      <trkpt lat="48.31904" lon="-4.05994">
        <ele>262</ele>
        <time>2020-05-17T09:16:16Z</time>
      </trkpt>
      <trkpt lat="48.3189" lon="-4.06056">
        <ele>256</ele>
        <time>2020-05-17T09:17:14Z</time>
      </trkpt>
      <trkpt lat="48.31915" lon="-4.06133">
        <ele>254</ele>
        <time>2020-05-17T09:18:30Z</time>
      </trkpt>
      <trkpt lat="48.31892" lon="-4.06236">
        <ele>252</ele>
        <time>2020-05-17T09:20:06Z</time>
      </trkpt>
      <trkpt lat="48.31871" lon="-4.06284">
        <ele>251</ele>
        <time>2020-05-17T09:20:57Z</time>
      </trkpt>
      <trkpt lat="48.3187" lon="-4.06317">
        <ele>253</ele>
        <time>2020-05-17T09:21:27Z</time>
      </trkpt>
      <trkpt lat="48.31872" lon="-4.06347">
        <ele>254</ele>
        <time>2020-05-17T09:21:53Z</time>
      </trkpt>
      <trkpt lat="48.31887" lon="-4.06434">
        <ele>261</ele>
        <time>2020-05-17T09:23:13Z</time>
      </trkpt>
      <trkpt lat="48.31895" lon="-4.06515">
        <ele>267</ele>
        <time>2020-05-17T09:24:26Z</time>
      </trkpt>
      <trkpt lat="48.31888" lon="-4.06539">
        <ele>267</ele>
        <time>2020-05-17T09:24:49Z</time>
      </trkpt>
      <trkpt lat="48.31874" lon="-4.06555">
        <ele>266</ele>
        <time>2020-05-17T09:25:13Z</time>
      </trkpt>
      <trkpt lat="48.31872" lon="-4.0658">
        <ele>267</ele>
        <time>2020-05-17T09:25:35Z</time>
      </trkpt>
      <trkpt lat="48.31881" lon="-4.06646">
        <ele>270</ele>
        <time>2020-05-17T09:26:35Z</time>
      </trkpt>
      <trkpt lat="48.31882" lon="-4.06655">
        <ele>270</ele>
        <time>2020-05-17T09:26:43Z</time>
      </trkpt>
      <trkpt lat="48.3189" lon="-4.06654">
        <ele>271</ele>
        <time>2020-05-17T09:26:54Z</time>
      </trkpt>
      <trkpt lat="48.31906" lon="-4.0666">
        <ele>272</ele>
        <time>2020-05-17T09:27:16Z</time>
      </trkpt>
      <trkpt lat="48.31941" lon="-4.06682">
        <ele>275</ele>
        <time>2020-05-17T09:28:06Z</time>
      </trkpt>
      <trkpt lat="48.31948" lon="-4.06671">
        <ele>276</ele>
        <time>2020-05-17T09:28:20Z</time>
      </trkpt>
      <trkpt lat="48.3196" lon="-4.06642">
        <ele>277</ele>
        <time>2020-05-17T09:28:50Z</time>
      </trkpt>
      <trkpt lat="48.31966" lon="-4.0664">
        <ele>277</ele>
        <time>2020-05-17T09:28:58Z</time>
      </trkpt>
      <trkpt lat="48.31987" lon="-4.06656">
        <ele>280</ele>
        <time>2020-05-17T09:29:30Z</time>
      </trkpt>
      <trkpt lat="48.3199" lon="-4.06661">
        <ele>280</ele>
        <time>2020-05-17T09:29:36Z</time>
      </trkpt>
      <trkpt lat="48.32" lon="-4.06669">
        <ele>281</ele>
        <time>2020-05-17T09:29:51Z</time>
      </trkpt>
      <trkpt lat="48.3206" lon="-4.06695">
        <ele>288</ele>
        <time>2020-05-17T09:31:14Z</time>
      </trkpt>
      <trkpt lat="48.32087" lon="-4.06713">
        <ele>290</ele>
        <time>2020-05-17T09:31:53Z</time>
      </trkpt>
      <trkpt lat="48.32101" lon="-4.06728">
        <ele>291</ele>
        <time>2020-05-17T09:32:16Z</time>
      </trkpt>
      <trkpt lat="48.32095" lon="-4.06755">
        <ele>290</ele>
        <time>2020-05-17T09:32:42Z</time>
      </trkpt>
      <trkpt lat="48.32099" lon="-4.0685">
        <ele>287</ele>
        <time>2020-05-17T09:34:06Z</time>
      </trkpt>
      <trkpt lat="48.32119" lon="-4.06932">
        <ele>285</ele>
        <time>2020-05-17T09:35:24Z</time>
      </trkpt>
      <trkpt lat="48.32133" lon="-4.07005">
        <ele>284</ele>
        <time>2020-05-17T09:36:31Z</time>
      </trkpt>
      <trkpt lat="48.32158" lon="-4.0709">
        <ele>284</ele>
        <time>2020-05-17T09:37:53Z</time>
      </trkpt>
      <trkpt lat="48.32181" lon="-4.07305">
        <ele>287</ele>
        <time>2020-05-17T09:41:07Z</time>
      </trkpt>
      <trkpt lat="48.32223" lon="-4.07519">
        <ele>279</ele>
        <time>2020-05-17T09:44:25Z</time>
      </trkpt>
      <trkpt lat="48.32298" lon="-4.07751">
        <ele>274</ele>
        <time>2020-05-17T09:48:14Z</time>
      </trkpt>
      <trkpt lat="48.32407" lon="-4.08143">
        <ele>261</ele>
        <time>2020-05-17T09:54:31Z</time>
      </trkpt>
      <trkpt lat="48.32426" lon="-4.0824">
        <ele>257</ele>
        <time>2020-05-17T09:56:00Z</time>
      </trkpt>
      <trkpt lat="48.32455" lon="-4.08439">
        <ele>248</ele>
        <time>2020-05-17T09:59:01Z</time>
      </trkpt>
      <trkpt lat="48.32494" lon="-4.08567">
        <ele>242</ele>
        <time>2020-05-17T10:01:06Z</time>
      </trkpt>
      <trkpt lat="48.32532" lon="-4.08635">
        <ele>239</ele>
        <time>2020-05-17T10:02:25Z</time>
      </trkpt>
      <trkpt lat="48.32537" lon="-4.0865">
        <ele>238</ele>
        <time>2020-05-17T10:02:40Z</time>
      </trkpt>
      <trkpt lat="48.32539" lon="-4.08654">
        <ele>238</ele>
        <time>2020-05-17T10:02:44Z</time>
      </trkpt>
      <trkpt lat="48.32575" lon="-4.08705">
        <ele>234</ele>
        <time>2020-05-17T10:03:50Z</time>
      </trkpt>
      <trkpt lat="48.32594" lon="-4.08721">
        <ele>232</ele>
        <time>2020-05-17T10:04:19Z</time>
      </trkpt>
      <trkpt lat="48.32617" lon="-4.08753">
        <ele>229</ele>
        <time>2020-05-17T10:05:01Z</time>
      </trkpt>
      <trkpt lat="48.32677" lon="-4.08849">
        <ele>222</ele>
        <time>2020-05-17T10:06:58Z</time>
      </trkpt>
      <trkpt lat="48.32686" lon="-4.08851">
        <ele>221</ele>
        <time>2020-05-17T10:07:10Z</time>
      </trkpt>
      <trkpt lat="48.32708" lon="-4.08876">
        <ele>218</ele>
        <time>2020-05-17T10:07:47Z</time>
      </trkpt>
      <trkpt lat="48.32774" lon="-4.08941">
        <ele>213</ele>
        <time>2020-05-17T10:09:32Z</time>
      </trkpt>
      <trkpt lat="48.32862" lon="-4.09012">
        <ele>210</ele>
        <time>2020-05-17T10:11:45Z</time>
      </trkpt>
      <trkpt lat="48.32904" lon="-4.09052">
        <ele>208</ele>
        <time>2020-05-17T10:12:52Z</time>
      </trkpt>
      <trkpt lat="48.32931" lon="-4.09073">
        <ele>204</ele>
        <time>2020-05-17T10:13:32Z</time>
      </trkpt>
      <trkpt lat="48.32947" lon="-4.09075">
        <ele>200</ele>
        <time>2020-05-17T10:13:54Z</time>
      </trkpt>
      <trkpt lat="48.32987" lon="-4.09142">
        <ele>191</ele>
        <time>2020-05-17T10:15:14Z</time>
      </trkpt>
      <trkpt lat="48.32995" lon="-4.0916">
        <ele>190</ele>
        <time>2020-05-17T10:15:33Z</time>
      </trkpt>
      <trkpt lat="48.33005" lon="-4.09205">
        <ele>187</ele>
        <time>2020-05-17T10:16:15Z</time>
      </trkpt>
      <trkpt lat="48.33007" lon="-4.09234">
        <ele>186</ele>
        <time>2020-05-17T10:16:41Z</time>
      </trkpt>
      <trkpt lat="48.3301" lon="-4.09346">
        <ele>177</ele>
        <time>2020-05-17T10:18:20Z</time>
      </trkpt>
      <trkpt lat="48.33014" lon="-4.09358">
        <ele>176</ele>
        <time>2020-05-17T10:18:32Z</time>
      </trkpt>
      <trkpt lat="48.33013" lon="-4.09366">
        <ele>176</ele>
        <time>2020-05-17T10:18:39Z</time>
      </trkpt>
      <trkpt lat="48.33042" lon="-4.09335">
        <ele>173</ele>
        <time>2020-05-17T10:19:27Z</time>
      </trkpt>
      <trkpt lat="48.33049" lon="-4.09324">
        <ele>172</ele>
        <time>2020-05-17T10:19:40Z</time>
      </trkpt>
      <trkpt lat="48.33041" lon="-4.09317">
        <ele>174</ele>
        <time>2020-05-17T10:19:53Z</time>
      </trkpt>
      <trkpt lat="48.33049" lon="-4.09324">
        <ele>172</ele>
        <time>2020-05-17T10:20:05Z</time>
      </trkpt>
      <trkpt lat="48.33042" lon="-4.09335">
        <ele>173</ele>
        <time>2020-05-17T10:20:19Z</time>
      </trkpt>
      <trkpt lat="48.33013" lon="-4.09366">
        <ele>176</ele>
        <time>2020-05-17T10:21:06Z</time>
      </trkpt>
      <trkpt lat="48.3296" lon="-4.09423">
        <ele>179</ele>
        <time>2020-05-17T10:22:33Z</time>
      </trkpt>
      <trkpt lat="48.32925" lon="-4.09449">
        <ele>182</ele>
        <time>2020-05-17T10:23:25Z</time>
      </trkpt>
      <trkpt lat="48.32878" lon="-4.09492">
        <ele>185</ele>
        <time>2020-05-17T10:24:39Z</time>
      </trkpt>
      <trkpt lat="48.32854" lon="-4.09518">
        <ele>186</ele>
        <time>2020-05-17T10:25:18Z</time>
      </trkpt>
      <trkpt lat="48.32833" lon="-4.09544">
        <ele>187</ele>
        <time>2020-05-17T10:25:54Z</time>
      </trkpt>
      <trkpt lat="48.32822" lon="-4.09569">
        <ele>187</ele>
        <time>2020-05-17T10:26:21Z</time>
      </trkpt>
      <trkpt lat="48.32806" lon="-4.09597">
        <ele>188</ele>
        <time>2020-05-17T10:26:54Z</time>
      </trkpt>
      <trkpt lat="48.32783" lon="-4.09619">
        <ele>190</ele>
        <time>2020-05-17T10:27:30Z</time>
      </trkpt>
      <trkpt lat="48.32756" lon="-4.09637">
        <ele>194</ele>
        <time>2020-05-17T10:28:09Z</time>
      </trkpt>
      <trkpt lat="48.32749" lon="-4.09645">
        <ele>194</ele>
        <time>2020-05-17T10:28:21Z</time>
      </trkpt>
      <trkpt lat="48.32746" lon="-4.09652">
        <ele>193</ele>
        <time>2020-05-17T10:28:29Z</time>
      </trkpt>
      <trkpt lat="48.32743" lon="-4.09661">
        <ele>193</ele>
        <time>2020-05-17T10:28:37Z</time>
      </trkpt>
      <trkpt lat="48.32707" lon="-4.09665">
        <ele>193</ele>
        <time>2020-05-17T10:29:26Z</time>
      </trkpt>
      <trkpt lat="48.32692" lon="-4.09672">
        <ele>193</ele>
        <time>2020-05-17T10:29:47Z</time>
      </trkpt>
      <trkpt lat="48.32672" lon="-4.09671">
        <ele>194</ele>
        <time>2020-05-17T10:30:13Z</time>
      </trkpt>
      <trkpt lat="48.3266" lon="-4.09672">
        <ele>194</ele>
        <time>2020-05-17T10:30:29Z</time>
      </trkpt>
      <trkpt lat="48.32651" lon="-4.09669">
        <ele>195</ele>
        <time>2020-05-17T10:30:42Z</time>
      </trkpt>
      <trkpt lat="48.32623" lon="-4.09675">
        <ele>195</ele>
        <time>2020-05-17T10:31:19Z</time>
      </trkpt>
      <trkpt lat="48.32593" lon="-4.09676">
        <ele>197</ele>
        <time>2020-05-17T10:31:59Z</time>
      </trkpt>
      <trkpt lat="48.32566" lon="-4.09684">
        <ele>195</ele>
        <time>2020-05-17T10:32:36Z</time>
      </trkpt>
      <trkpt lat="48.32551" lon="-4.09694">
        <ele>193</ele>
        <time>2020-05-17T10:32:58Z</time>
      </trkpt>
      <trkpt lat="48.3253" lon="-4.09702">
        <ele>191</ele>
        <time>2020-05-17T10:33:27Z</time>
      </trkpt>
      <trkpt lat="48.32525" lon="-4.09708">
        <ele>190</ele>
        <time>2020-05-17T10:33:36Z</time>
      </trkpt>
      <trkpt lat="48.32523" lon="-4.09719">
        <ele>189</ele>
        <time>2020-05-17T10:33:46Z</time>
      </trkpt>
      <trkpt lat="48.32528" lon="-4.09735">
        <ele>187</ele>
        <time>2020-05-17T10:34:01Z</time>
      </trkpt>
      <trkpt lat="48.32536" lon="-4.09779">
        <ele>183</ele>
        <time>2020-05-17T10:34:42Z</time>
      </trkpt>
      <trkpt lat="48.32548" lon="-4.09867">
        <ele>177</ele>
        <time>2020-05-17T10:36:01Z</time>
      </trkpt>
      <trkpt lat="48.32576" lon="-4.10008">
        <ele>173</ele>
        <time>2020-05-17T10:38:12Z</time>
      </trkpt>
      <trkpt lat="48.32586" lon="-4.10042">
        <ele>172</ele>
        <time>2020-05-17T10:38:45Z</time>
      </trkpt>
      <trkpt lat="48.32589" lon="-4.10062">
        <ele>171</ele>
        <time>2020-05-17T10:39:03Z</time>
      </trkpt>
      <trkpt lat="48.3259" lon="-4.10082">
        <ele>170</ele>
        <time>2020-05-17T10:39:21Z</time>
      </trkpt>
      <trkpt lat="48.32595" lon="-4.10122">
        <ele>168</ele>
        <time>2020-05-17T10:39:57Z</time>
      </trkpt>
      <trkpt lat="48.32591" lon="-4.10137">
        <ele>167</ele>
        <time>2020-05-17T10:40:11Z</time>
      </trkpt>
      <trkpt lat="48.32578" lon="-4.10167">
        <ele>165</ele>
        <time>2020-05-17T10:40:43Z</time>
      </trkpt>
      <trkpt lat="48.3257" lon="-4.10179">
        <ele>163</ele>
        <time>2020-05-17T10:40:58Z</time>
      </trkpt>
      <trkpt lat="48.32557" lon="-4.1019">
        <ele>161</ele>
        <time>2020-05-17T10:41:18Z</time>
      </trkpt>
      <trkpt lat="48.32543" lon="-4.10197">
        <ele>159</ele>
        <time>2020-05-17T10:41:38Z</time>
      </trkpt>
      <trkpt lat="48.32539" lon="-4.10185">
        <ele>160</ele>
        <time>2020-05-17T10:41:50Z</time>
      </trkpt>
      <trkpt lat="48.32421" lon="-4.09905">
        <ele>163</ele>
        <time>2020-05-17T10:46:44Z</time>
      </trkpt>
      <trkpt lat="48.3221" lon="-4.09417">
        <ele>180</ele>
        <time>2020-05-17T10:55:21Z</time>
      </trkpt>
      <trkpt lat="48.32146" lon="-4.09273">
        <ele>187</ele>
        <time>2020-05-17T10:57:54Z</time>
      </trkpt>
      <trkpt lat="48.32142" lon="-4.09253">
        <ele>188</ele>
        <time>2020-05-17T10:58:13Z</time>
      </trkpt>
      <trkpt lat="48.32141" lon="-4.09227">
        <ele>189</ele>
        <time>2020-05-17T10:58:36Z</time>
      </trkpt>
      <trkpt lat="48.32143" lon="-4.09199">
        <ele>189</ele>
        <time>2020-05-17T10:59:01Z</time>
      </trkpt>
      <trkpt lat="48.32132" lon="-4.09178">
        <ele>189</ele>
        <time>2020-05-17T10:59:25Z</time>
      </trkpt>
      <trkpt lat="48.32121" lon="-4.09165">
        <ele>188</ele>
        <time>2020-05-17T10:59:43Z</time>
      </trkpt>
      <trkpt lat="48.32098" lon="-4.09155">
        <ele>186</ele>
        <time>2020-05-17T11:00:15Z</time>
      </trkpt>
      <trkpt lat="48.32095" lon="-4.09146">
        <ele>185</ele>
        <time>2020-05-17T11:00:24Z</time>
      </trkpt>
      <trkpt lat="48.32098" lon="-4.09155">
        <ele>186</ele>
        <time>2020-05-17T11:00:33Z</time>
      </trkpt>
      <trkpt lat="48.3204" lon="-4.09193">
        <ele>179</ele>
        <time>2020-05-17T11:01:57Z</time>
      </trkpt>
      <trkpt lat="48.31636" lon="-4.09349">
        <ele>135</ele>
        <time>2020-05-17T11:11:14Z</time>
      </trkpt>
      <trkpt lat="48.31592" lon="-4.09368">
        <ele>133</ele>
        <time>2020-05-17T11:12:15Z</time>
      </trkpt>
      <trkpt lat="48.31586" lon="-4.09378">
        <ele>132</ele>
        <time>2020-05-17T11:12:27Z</time>
      </trkpt>
      <trkpt lat="48.31574" lon="-4.09431">
        <ele>129</ele>
        <time>2020-05-17T11:13:17Z</time>
      </trkpt>
      <trkpt lat="48.31567" lon="-4.09472">
        <ele>126</ele>
        <time>2020-05-17T11:13:54Z</time>
      </trkpt>
      <trkpt lat="48.31543" lon="-4.0957">
        <ele>122</ele>
        <time>2020-05-17T11:15:27Z</time>
      </trkpt>
      <trkpt lat="48.31543" lon="-4.09576">
        <ele>122</ele>
        <time>2020-05-17T11:15:32Z</time>
      </trkpt>
      <trkpt lat="48.31542" lon="-4.09593">
        <ele>121</ele>
        <time>2020-05-17T11:15:48Z</time>
      </trkpt>
      <trkpt lat="48.31545" lon="-4.09644">
        <ele>120</ele>
        <time>2020-05-17T11:16:33Z</time>
      </trkpt>
      <trkpt lat="48.31547" lon="-4.09665">
        <ele>120</ele>
        <time>2020-05-17T11:16:52Z</time>
      </trkpt>
      <trkpt lat="48.31551" lon="-4.09763">
        <ele>116</ele>
        <time>2020-05-17T11:18:19Z</time>
      </trkpt>
      <trkpt lat="48.31542" lon="-4.09791">
        <ele>114</ele>
        <time>2020-05-17T11:18:47Z</time>
      </trkpt>
      <trkpt lat="48.31531" lon="-4.09816">
        <ele>113</ele>
        <time>2020-05-17T11:19:13Z</time>
      </trkpt>
      <trkpt lat="48.31515" lon="-4.09865">
        <ele>110</ele>
        <time>2020-05-17T11:20:02Z</time>
      </trkpt>
      <trkpt lat="48.31513" lon="-4.09874">
        <ele>110</ele>
        <time>2020-05-17T11:20:10Z</time>
      </trkpt>
      <trkpt lat="48.31515" lon="-4.09885">
        <ele>110</ele>
        <time>2020-05-17T11:20:20Z</time>
      </trkpt>
      <trkpt lat="48.31528" lon="-4.09936">
        <ele>108</ele>
        <time>2020-05-17T11:21:09Z</time>
      </trkpt>
      <trkpt lat="48.31535" lon="-4.1004">
        <ele>106</ele>
        <time>2020-05-17T11:22:41Z</time>
      </trkpt>
      <trkpt lat="48.31513" lon="-4.10103">
        <ele>105</ele>
        <time>2020-05-17T11:23:44Z</time>
      </trkpt>
      <trkpt lat="48.31502" lon="-4.10124">
        <ele>104</ele>
        <time>2020-05-17T11:24:08Z</time>
      </trkpt>
      <trkpt lat="48.31497" lon="-4.10136">
        <ele>104</ele>
        <time>2020-05-17T11:24:21Z</time>
      </trkpt>
      <trkpt lat="48.31494" lon="-4.10139">
        <ele>104</ele>
        <time>2020-05-17T11:24:26Z</time>
      </trkpt>
      <trkpt lat="48.31484" lon="-4.10147">
        <ele>105</ele>
        <time>2020-05-17T11:24:41Z</time>
      </trkpt>
      <trkpt lat="48.3148" lon="-4.10148">
        <ele>105</ele>
        <time>2020-05-17T11:24:46Z</time>
      </trkpt>
      <trkpt lat="48.31478" lon="-4.10148">
        <ele>105</ele>
        <time>2020-05-17T11:24:49Z</time>
      </trkpt>
      <trkpt lat="48.31453" lon="-4.10142">
        <ele>107</ele>
        <time>2020-05-17T11:25:23Z</time>
      </trkpt>
      <trkpt lat="48.31455" lon="-4.10153">
        <ele>107</ele>
        <time>2020-05-17T11:25:33Z</time>
      </trkpt>
      <trkpt lat="48.31467" lon="-4.10171">
        <ele>106</ele>
        <time>2020-05-17T11:25:55Z</time>
      </trkpt>
      <trkpt lat="48.31476" lon="-4.10194">
        <ele>106</ele>
        <time>2020-05-17T11:26:19Z</time>
      </trkpt>
      <trkpt lat="48.3151" lon="-4.10265">
        <ele>106</ele>
        <time>2020-05-17T11:27:37Z</time>
      </trkpt>
      <trkpt lat="48.31565" lon="-4.10387">
        <ele>107</ele>
        <time>2020-05-17T11:29:47Z</time>
      </trkpt>
      <trkpt lat="48.31627" lon="-4.10478">
        <ele>106</ele>
        <time>2020-05-17T11:31:43Z</time>
      </trkpt>
      <trkpt lat="48.3174" lon="-4.10622">
        <ele>104</ele>
        <time>2020-05-17T11:35:01Z</time>
      </trkpt>
      <trkpt lat="48.31813" lon="-4.10679">
        <ele>99</ele>
        <time>2020-05-17T11:36:50Z</time>
      </trkpt>
      <trkpt lat="48.3186" lon="-4.10709">
        <ele>99</ele>
        <time>2020-05-17T11:37:59Z</time>
      </trkpt>
      <trkpt lat="48.31905" lon="-4.10756">
        <ele>99</ele>
        <time>2020-05-17T11:39:12Z</time>
      </trkpt>
      <trkpt lat="48.31958" lon="-4.10785">
        <ele>95</ele>
        <time>2020-05-17T11:40:27Z</time>
      </trkpt>
      <trkpt lat="48.31993" lon="-4.10815">
        <ele>91</ele>
        <time>2020-05-17T11:41:21Z</time>
      </trkpt>
      <trkpt lat="48.32005" lon="-4.10846">
        <ele>91</ele>
        <time>2020-05-17T11:41:53Z</time>
      </trkpt>
      <trkpt lat="48.3201" lon="-4.10925">
        <ele>93</ele>
        <time>2020-05-17T11:43:03Z</time>
      </trkpt>
      <trkpt lat="48.31975" lon="-4.10954">
        <ele>100</ele>
        <time>2020-05-17T11:43:56Z</time>
      </trkpt>
      <trkpt lat="48.31949" lon="-4.10995">
        <ele>105</ele>
        <time>2020-05-17T11:44:47Z</time>
      </trkpt>
      <trkpt lat="48.31922" lon="-4.1105">
        <ele>110</ele>
        <time>2020-05-17T11:45:47Z</time>
      </trkpt>
      <trkpt lat="48.31887" lon="-4.11104">
        <ele>115</ele>
        <time>2020-05-17T11:46:54Z</time>
      </trkpt>
      <trkpt lat="48.31878" lon="-4.11124">
        <ele>115</ele>
        <time>2020-05-17T11:47:16Z</time>
      </trkpt>
      <trkpt lat="48.31862" lon="-4.11143">
        <ele>117</ele>
        <time>2020-05-17T11:47:43Z</time>
      </trkpt>
      <trkpt lat="48.31787" lon="-4.11269">
        <ele>120</ele>
        <time>2020-05-17T11:50:13Z</time>
      </trkpt>
      <trkpt lat="48.31663" lon="-4.11458">
        <ele>130</ele>
        <time>2020-05-17T11:54:08Z</time>
      </trkpt>
      <trkpt lat="48.31614" lon="-4.11548">
        <ele>135</ele>
        <time>2020-05-17T11:55:52Z</time>
      </trkpt>
      <trkpt lat="48.31591" lon="-4.11573">
        <ele>137</ele>
        <time>2020-05-17T11:56:30Z</time>
      </trkpt>
      <trkpt lat="48.31578" lon="-4.11605">
        <ele>136</ele>
        <time>2020-05-17T11:57:03Z</time>
      </trkpt>
      <trkpt lat="48.3153" lon="-4.11683">
        <ele>133</ele>
        <time>2020-05-17T11:58:37Z</time>
      </trkpt>
      <trkpt lat="48.31295" lon="-4.12054">
        <ele>119</ele>
        <time>2020-05-17T12:06:12Z</time>
      </trkpt>
      <trkpt lat="48.31273" lon="-4.12065">
        <ele>118</ele>
        <time>2020-05-17T12:06:43Z</time>
      </trkpt>
      <trkpt lat="48.3126" lon="-4.12103">
        <ele>115</ele>
        <time>2020-05-17T12:07:21Z</time>
      </trkpt>
    </trkseg>
  </trk>
</gpx>